TimeEST,TemperatureF,Dew PointF,Humidity,Sea Level PressureIn,VisibilityMPH,Wind Direction,Wind SpeedMPH,Gust SpeedMPH,PrecipitationIn,Events,Conditions,WindDirDegrees,DateUTC
12:20 AM,41.0,32.0,70,30.22,10.0,East,3.5,-,N/A,,Scattered Clouds,90,2012-11-27 05:20:00
12:41 AM,42.8,32.0,66,30.22,10.0,East,4.6,-,N/A,,Scattered Clouds,80,2012-11-27 05:41:00
1:02 AM,42.8,32.0,66,30.22,10.0,East,4.6,-,N/A,,Scattered Clouds,90,2012-11-27 06:02:00
1:24 AM,42.8,33.8,70,30.21,10.0,East,5.8,-,N/A,,Scattered Clouds,90,2012-11-27 06:24:00
1:45 AM,42.8,33.8,70,30.21,10.0,East,3.5,-,N/A,,Scattered Clouds,90,2012-11-27 06:45:00
2:06 AM,41.0,33.8,76,30.22,10.0,East,3.5,-,N/A,,Scattered Clouds,80,2012-11-27 07:06:00
2:49 AM,42.8,33.8,70,30.21,10.0,East,4.6,-,N/A,,Clear,80,2012-11-27 07:49:00
3:10 AM,42.8,35.6,76,30.21,10.0,Calm,Calm,-,N/A,,Clear,0,2012-11-27 08:10:00
3:32 AM,42.8,35.6,76,30.21,10.0,Calm,Calm,-,N/A,,Clear,0,2012-11-27 08:32:00
3:53 AM,42.8,35.6,76,30.20,10.0,East,3.5,-,N/A,,Scattered Clouds,80,2012-11-27 08:53:00
4:14 AM,41.0,37.4,87,30.19,10.0,Calm,Calm,-,N/A,,Scattered Clouds,0,2012-11-27 09:14:00
4:35 AM,41.0,37.4,87,30.19,7.0,ENE,4.6,-,N/A,,Mostly Cloudy,70,2012-11-27 09:35:00
4:57 AM,42.8,37.4,81,30.20,10.0,Calm,Calm,-,N/A,,Scattered Clouds,0,2012-11-27 09:57:00
5:18 AM,41.0,37.4,87,30.21,7.0,NNW,3.5,-,N/A,,Clear,340,2012-11-27 10:18:00
5:39 AM,42.8,39.2,87,30.21,7.0,North,3.5,-,N/A,,Clear,360,2012-11-27 10:39:00
6:01 AM,42.8,39.2,87,30.21,7.0,Calm,Calm,-,N/A,,Clear,0,2012-11-27 11:01:00
6:22 AM,42.8,41.0,93,30.19,7.0,East,9.2,-,N/A,,Clear,80,2012-11-27 11:22:00
6:43 AM,42.8,41.0,93,30.19,7.0,East,8.1,-,N/A,,Clear,100,2012-11-27 11:43:00
7:04 AM,42.8,41.0,93,30.18,5.0,East,9.2,-,N/A,,Mostly Cloudy,100,2012-11-27 12:04:00
7:26 AM,42.8,41.0,93,30.18,5.0,ESE,8.1,-,N/A,,Overcast,110,2012-11-27 12:26:00
7:47 AM,42.8,41.0,93,30.18,4.0,ESE,8.1,-,N/A,,Overcast,120,2012-11-27 12:47:00
8:08 AM,44.6,42.8,93,30.17,5.0,ESE,10.4,-,N/A,,Overcast,110,2012-11-27 13:08:00
8:29 AM,44.6,42.8,93,30.18,5.0,ESE,10.4,-,N/A,,Overcast,120,2012-11-27 13:29:00
8:51 AM,44.6,42.8,93,30.18,5.0,SE,6.9,-,N/A,,Overcast,130,2012-11-27 13:51:00
9:12 AM,44.6,42.8,93,30.19,4.0,SE,4.6,-,N/A,,Overcast,140,2012-11-27 14:12:00
9:33 AM,44.6,44.6,100,30.18,4.0,ESE,5.8,-,N/A,,Overcast,120,2012-11-27 14:33:00
9:54 AM,44.6,44.6,100,30.18,4.0,East,4.6,-,N/A,,Overcast,100,2012-11-27 14:54:00
10:16 AM,44.6,44.6,100,30.17,3.0,East,3.5,-,N/A,,Overcast,100,2012-11-27 15:16:00
10:58 AM,44.6,44.6,100,30.19,2.0,NW,3.5,-,N/A,,Overcast,320,2012-11-27 15:58:00
11:19 AM,42.8,42.8,100,30.19,2.0,NNW,10.4,-,N/A,,Overcast,340,2012-11-27 16:19:00
1:06 PM,41.0,41.0,100,30.17,4.0,NNW,12.7,19.6,N/A,,Overcast,340,2012-11-27 18:06:00
1:27 PM,41.0,41.0,100,30.18,5.0,North,11.5,17.3,N/A,,Overcast,350,2012-11-27 18:27:00
1:48 PM,39.2,39.2,100,30.17,4.0,NNW,13.8,18.4,N/A,,Overcast,340,2012-11-27 18:48:00
2:09 PM,39.2,39.2,100,30.17,5.0,North,11.5,17.3,N/A,,Overcast,350,2012-11-27 19:09:00
2:31 PM,39.2,39.2,100,30.17,5.0,North,12.7,16.1,N/A,,Overcast,350,2012-11-27 19:31:00
2:52 PM,39.2,39.2,100,30.18,7.0,NNW,11.5,16.1,N/A,,Overcast,340,2012-11-27 19:52:00
3:34 PM,37.4,37.4,100,30.18,10.0,North,11.5,17.3,N/A,,Overcast,360,2012-11-27 20:34:00
3:56 PM,39.2,37.4,93,30.18,10.0,North,10.4,-,N/A,,Overcast,350,2012-11-27 20:56:00
4:17 PM,39.2,37.4,93,30.18,10.0,North,8.1,-,N/A,,Overcast,360,2012-11-27 21:17:00
4:38 PM,39.2,37.4,93,30.18,10.0,North,11.5,16.1,N/A,,Overcast,360,2012-11-27 21:38:00
5:20 PM,41.0,37.4,87,30.19,10.0,North,10.4,18.4,N/A,,Overcast,350,2012-11-27 22:20:00
5:42 PM,41.0,35.6,81,30.20,10.0,North,10.4,19.6,N/A,,Overcast,350,2012-11-27 22:42:00
6:03 PM,41.0,35.6,81,30.21,10.0,NNW,11.5,-,N/A,,Overcast,340,2012-11-27 23:03:00
6:24 PM,39.2,35.6,87,30.22,10.0,NNW,13.8,18.4,N/A,,Overcast,340,2012-11-27 23:24:00
6:45 PM,39.2,35.6,87,30.22,10.0,NNW,10.4,18.4,N/A,,Overcast,340,2012-11-27 23:45:00
7:07 PM,39.2,35.6,87,30.23,10.0,North,15.0,19.6,N/A,,Overcast,350,2012-11-28 00:07:00
7:28 PM,39.2,35.6,87,30.24,10.0,NNW,15.0,23.0,N/A,,Overcast,340,2012-11-28 00:28:00
8:32 PM,39.2,33.8,81,30.25,10.0,North,12.7,18.4,N/A,,Overcast,350,2012-11-28 01:32:00
8:53 PM,39.2,33.8,81,30.24,10.0,North,12.7,18.4,N/A,,Overcast,350,2012-11-28 01:53:00
9:14 PM,39.2,35.6,87,30.24,7.0,North,10.4,18.4,N/A,,Overcast,350,2012-11-28 02:14:00
9:35 PM,39.2,35.6,87,30.25,7.0,North,10.4,16.1,N/A,,Overcast,350,2012-11-28 02:35:00
9:57 PM,39.2,35.6,87,30.25,10.0,NNW,9.2,-,N/A,,Overcast,340,2012-11-28 02:57:00
10:18 PM,39.2,33.8,81,30.25,10.0,North,12.7,18.4,N/A,,Overcast,350,2012-11-28 03:18:00
10:39 PM,37.4,33.8,87,30.26,10.0,NNW,10.4,18.4,N/A,,Overcast,340,2012-11-28 03:39:00
11:01 PM,37.4,33.8,87,30.26,10.0,North,11.5,-,N/A,,Overcast,350,2012-11-28 04:01:00
11:22 PM,37.4,33.8,87,30.25,10.0,North,10.4,-,N/A,,Overcast,350,2012-11-28 04:22:00